Close

Questo sito utlizza cookie. Può leggere come li usiamo nella nostra Privacy Policy.

Ronchi Tower
Ronchi Tower

From Facebook

METAR & TAF

2018/06/21 13:20 LIPQ 211320Z 20010KT CAVOK 30/17 Q1013
2018/06/21 12:21 TAF LIPQ 211100Z 2112/2212 VRB05KT 9999 SCT060 TEMPO 2122/2209 TSRA
2018/06/21 13:20 LIPZ 211320Z 14010KT CAVOK 29/20 Q1013 NOSIG
2018/06/21 12:21 TAF LIPZ 211100Z 2112/2218 16010KT CAVOK BECMG 2121/2123 04010KT TEMPO 2121/2210 TSRA BECMG 2210/2212 11015G25KT
2018/06/21 13:20 LIPH 211320Z 18004KT 110V210 9999 FEW040 32/18 Q1013
2018/06/21 12:21 TAF LIPH 211100Z 2112/2212 VRB05KT CAVOK TEMPO 2122/2206 TSRA
2018/06/21 13:20 LIRF 211320Z 25011G21KT CAVOK 27/18 Q1016 NOSIG
2018/06/21 12:24 TAF LIRF 211100Z 2112/2218 26012KT 9999 SCT030 BECMG 2118/2120 VRB04KT BECMG 2208/2210 23012KT
2018/06/21 12:50 LIML 211250Z VRB05KT 9999 FEW035 31/17 Q1014 NOSIG
2018/06/21 12:21 TAF TAF LIML 211100Z 2112/2212 25006KT CAVOK
2018/06/21 13:20 EDDM 211320Z 28014KT 250V310 CAVOK 27/13 Q1014 TEMPO 33020G35KT
2018/06/21 12:27 TAF EDDM 211100Z 2112/2218 30015G25KT 9999 SCT045 TEMPO 2112/2117 32020G35KT PROB30 TEMPO 2112/2115 TSRA BKN050CB BECMG 2118/2120 30010KT BECMG 2122/2124 29005KT BECMG 2205/2207 29010KT TEMPO 2210/2216 30015G25KT PROB30 TEMPO 2214/2217 SHRA BKN040CB
2018/06/21 13:20 EGSS 211320Z AUTO 34010KT 310V010 9999 NCD 17/04 Q1026
2018/06/21 12:16 TAF EGSS 211052Z 2112/2218 33012KT 9999 SCT040

FlightRadar24

Radar Meteo

Traffic data

Marzo 2018

Passeggeri: 57555-3,4% (rank: 23)
Nazionali 39679 +1,0% 21°
Internazionali 17689 -11,7% 23°

Movimenti: 1074-16,3% (rank: 21)
Tot commerciale 653 -10,3% 22°
Aviazione generale 421 -24,1%

Cargo (tons): 96,3109,5% (rank: 18)

Gennaio - Marzo 2018

Passeggeri: 155953-1,4% (rank: 23)
Nazionali 108431 +3,9% 21°
Internazionali 47066 -11,5% 22°

Movimenti: 3163-14,5% (rank: 21)
Tot commerciale 1876 -7,3% 21°
Aviazione generale 1287 -23,3%

Cargo (tons): 125,6+16,7% (rank: 21)

Photo

Douglas DC-6B
Douglas DC-6B
Distinct views: 13
Douglas DC-6B
Douglas DC-6B
Distinct views: 63
Douglas DC-6B
Douglas DC-6B
Distinct views: 176
Boeing 737-400
Boeing 737-400
Total views: 684